Terminal Aerodrome Forecast
Issued by NWS

Home | Current Version | Previous Version | Text Only | Print | Product List | Glossary On
Versions: 1 2 3 4 5 6 7 8 9 10 11 12 13 14 15 16 17 18 19 20 21 22 23 24 25 26
000
FTUS42 KRAH 231737
TAFINT
TAF
KINT 231737Z 2318/2418 22012G20KT P6SM SCT035
      TEMPO 2320/2324 21017G25KT
     FM240400 22017G25KT P6SM SCT010
      TEMPO 2404/2408 24025G35KT 3SM SHRA BKN010
     FM240800 24012KT P6SM BKN010
     FM241200 24008KT P6SM SCT015=

USA.gov is the U.S. government's official web portal to all federal, state and local government web resources and services.